Al Rustaq, Oman
Current Conditions -  °F | °C
As of 10:52 PM on Thursday 30 Oct 2014 (Local Time) from EQMN Reporting Station
Clear Clear  
Wind Chill: 79°   Ceiling: Unl
Heat Index: 82°   Visibility: 4mi
Dew Point: 72°   Wind: 3mph
Humidity: 78%   Direction: 190°S
Pressure: 29.88"   Gusts: NA
Location:  23.4°N, 57.43°E
Report Text: EQMN 301852Z AUTO 19003KT 6000 NSC 26/22 Q1012
Loading
Personal Weather Stations






























Interactive Weather Map
Tropical Storm Tracking
New forecast layout! Learn more

10-Day Weather Forecast

Advertisements
Track Severe Weather on mobile